sensor_id;sensor_type;location;lat;lon;timestamp;pressure;altitude;pressure_sealevel;temperature;humidity
33191;BME280;19554;42.652;23.364;2023-03-16T00:00:01;93722.78;;;3.73;77.79
33191;BME280;19554;42.652;23.364;2023-03-16T00:02:26;93772.31;;;4.22;77.74
33191;BME280;19554;42.652;23.364;2023-03-16T00:04:51;93715.63;;;3.69;76.31
33191;BME280;19554;42.652;23.364;2023-03-16T00:07:17;93767.06;;;4.02;77.04
33191;BME280;19554;42.652;23.364;2023-03-16T00:09:42;93782.66;;;4.14;76.91
33191;BME280;19554;42.652;23.364;2023-03-16T00:12:14;93723.03;;;3.77;76.56
33191;BME280;19554;42.652;23.364;2023-03-16T00:14:45;93778.97;;;3.89;76.89
33191;BME280;19554;42.652;23.364;2023-03-16T00:17:12;93726.72;;;3.55;77.05
33191;BME280;19554;42.652;23.364;2023-03-16T00:19:52;93707.25;;;3.36;77.12
33191;BME280;19554;42.652;23.364;2023-03-16T00:22:20;93800.09;;;3.79;77.88
33191;BME280;19554;42.652;23.364;2023-03-16T00:24:46;93788.22;;;3.76;77.68
33191;BME280;19554;42.652;23.364;2023-03-16T00:27:12;93775.81;;;3.82;77.87
33191;BME280;19554;42.652;23.364;2023-03-16T00:29:45;93787.41;;;3.96;77.41
33191;BME280;19554;42.652;23.364;2023-03-16T00:32:15;93791.09;;;3.85;77.50
33191;BME280;19554;42.652;23.364;2023-03-16T00:34:42;93765.78;;;3.64;77.78
33191;BME280;19554;42.652;23.364;2023-03-16T00:37:07;93799.03;;;3.70;77.35
33191;BME280;19554;42.652;23.364;2023-03-16T00:39:33;93705.63;;;2.99;77.74
33191;BME280;19554;42.652;23.364;2023-03-16T00:42:00;93714.09;;;3.17;77.46
33191;BME280;19554;42.652;23.364;2023-03-16T00:44:25;93797.47;;;3.64;77.54
33191;BME280;19554;42.652;23.364;2023-03-16T00:46:51;93775.81;;;3.36;77.90
33191;BME280;19554;42.652;23.364;2023-03-16T00:49:16;93809.84;;;3.58;78.14
33191;BME280;19554;42.652;23.364;2023-03-16T00:51:41;93787.94;;;3.58;78.58
33191;BME280;19554;42.652;23.364;2023-03-16T00:54:11;93791.13;;;3.60;78.47
33191;BME280;19554;42.652;23.364;2023-03-16T00:56:36;93798.75;;;3.41;78.60
33191;BME280;19554;42.652;23.364;2023-03-16T00:59:02;93800.88;;;3.54;78.63
33191;BME280;19554;42.652;23.364;2023-03-16T01:01:27;93812.22;;;3.49;78.39
33191;BME280;19554;42.652;23.364;2023-03-16T01:03:52;93814.06;;;3.44;78.58
33191;BME280;19554;42.652;23.364;2023-03-16T01:06:18;93814.06;;;3.33;78.85
33191;BME280;19554;42.652;23.364;2023-03-16T01:08:45;93807.97;;;3.23;79.29
33191;BME280;19554;42.652;23.364;2023-03-16T01:11:18;93805.84;;;3.15;79.11
33191;BME280;19554;42.652;23.364;2023-03-16T01:13:44;93807.94;;;3.18;78.82
33191;BME280;19554;42.652;23.364;2023-03-16T01:16:11;93752.47;;;2.67;79.42
33191;BME280;19554;42.652;23.364;2023-03-16T01:18:37;93810.06;;;3.16;79.63
33191;BME280;19554;42.652;23.364;2023-03-16T01:21:08;93802.97;;;3.26;79.78
33191;BME280;19554;42.652;23.364;2023-03-16T01:23:36;93814.31;;;3.37;79.74
33191;BME280;19554;42.652;23.364;2023-03-16T01:26:01;93784.47;;;3.21;79.68
33191;BME280;19554;42.652;23.364;2023-03-16T01:28:29;93812.22;;;3.49;79.94
33191;BME280;19554;42.652;23.364;2023-03-16T01:31:00;93819.63;;;3.52;79.72
33191;BME280;19554;42.652;23.364;2023-03-16T01:33:27;93817.75;;;3.58;79.12
33191;BME280;19554;42.652;23.364;2023-03-16T01:35:54;93816.19;;;3.62;78.99
33191;BME280;19554;42.652;23.364;2023-03-16T01:38:20;93819.09;;;3.61;78.71
33191;BME280;19554;42.652;23.364;2023-03-16T01:40:50;93821.47;;;3.57;79.00
33191;BME280;19554;42.652;23.364;2023-03-16T01:43:17;93809.56;;;3.44;79.18
33191;BME280;19554;42.652;23.364;2023-03-16T01:48:32;93820.66;;;3.51;78.29
33191;BME280;19554;42.652;23.364;2023-03-16T01:51:11;93828.03;;;3.39;78.18
33191;BME280;19554;42.652;23.364;2023-03-16T01:53:40;93801.09;;;3.12;78.80
33191;BME280;19554;42.652;23.364;2023-03-16T01:56:10;93824.81;;;3.17;79.04
33191;BME280;19554;42.652;23.364;2023-03-16T01:58:38;93830.09;;;3.12;79.10
33191;BME280;19554;42.652;23.364;2023-03-16T02:01:06;93834.84;;;3.09;78.53
33191;BME280;19554;42.652;23.364;2023-03-16T02:03:32;93842.75;;;3.09;79.01
33191;BME280;19554;42.652;23.364;2023-03-16T02:06:16;93798.66;;;2.84;78.73
33191;BME280;19554;42.652;23.364;2023-03-16T02:08:44;93829.59;;;3.15;78.58
33191;BME280;19554;42.652;23.364;2023-03-16T02:11:12;93851.19;;;3.17;78.25
33191;BME280;19554;42.652;23.364;2023-03-16T02:13:42;93843.81;;;3.19;78.77
33191;BME280;19554;42.652;23.364;2023-03-16T02:16:07;93839.59;;;3.13;78.50
33191;BME280;19554;42.652;23.364;2023-03-16T02:18:33;93853.06;;;3.26;78.53
33191;BME280;19554;42.652;23.364;2023-03-16T02:23:47;93845.91;;;3.12;78.89
33191;BME280;19554;42.652;23.364;2023-03-16T02:31:14;93856.41;;;2.96;78.88
33191;BME280;19554;42.652;23.364;2023-03-16T02:33:41;93878.81;;;3.04;79.29
33191;BME280;19554;42.652;23.364;2023-03-16T02:36:08;93871.19;;;3.02;79.54
33191;BME280;19554;42.652;23.364;2023-03-16T02:38:33;93837.81;;;2.66;79.85
33191;BME280;19554;42.652;23.364;2023-03-16T02:41:11;93818.28;;;2.51;80.16
33191;BME280;19554;42.652;23.364;2023-03-16T02:43:42;93875.88;;;2.90;80.26
33191;BME280;19554;42.652;23.364;2023-03-16T02:46:08;93872.44;;;2.90;80.51
33191;BME280;19554;42.652;23.364;2023-03-16T02:48:45;93884.00;;;2.83;80.55
33191;BME280;19554;42.652;23.364;2023-03-16T02:51:13;93877.94;;;2.83;81.23
33191;BME280;19554;42.652;23.364;2023-03-16T02:53:39;93877.94;;;2.83;81.33
33191;BME280;19554;42.652;23.364;2023-03-16T02:56:04;93861.53;;;2.66;81.67
33191;BME280;19554;42.652;23.364;2023-03-16T02:58:30;93884.28;;;2.82;81.79
33191;BME280;19554;42.652;23.364;2023-03-16T03:00:56;93875.56;;;2.76;81.65
33191;BME280;19554;42.652;23.364;2023-03-16T03:03:22;93896.63;;;2.76;82.01
33191;BME280;19554;42.652;23.364;2023-03-16T03:05:47;93858.34;;;2.53;81.92
33191;BME280;19554;42.652;23.364;2023-03-16T03:08:13;93894.00;;;2.76;82.53
33191;BME280;19554;42.652;23.364;2023-03-16T03:10:39;93897.41;;;2.72;82.09
33191;BME280;19554;42.652;23.364;2023-03-16T03:13:05;93892.06;;;2.56;82.08
33191;BME280;19554;42.652;23.364;2023-03-16T03:15:32;93874.59;;;2.40;82.27
33191;BME280;19554;42.652;23.364;2023-03-16T03:17:57;93890.72;;;2.54;82.12
33191;BME280;19554;42.652;23.364;2023-03-16T03:20:23;93870.94;;;2.51;82.24
33191;BME280;19554;42.652;23.364;2023-03-16T03:22:49;93899.22;;;2.66;81.51
33191;BME280;19554;42.652;23.364;2023-03-16T03:25:18;93904.25;;;2.68;81.75
33191;BME280;19554;42.652;23.364;2023-03-16T03:27:45;93896.56;;;2.61;81.77
33191;BME280;19554;42.652;23.364;2023-03-16T03:30:13;93910.31;;;2.68;81.56
33191;BME280;19554;42.652;23.364;2023-03-16T03:32:40;93870.84;;;2.31;81.56
33191;BME280;19554;42.652;23.364;2023-03-16T03:35:06;93926.25;;;2.46;81.28
33191;BME280;19554;42.652;23.364;2023-03-16T03:37:31;93916.28;;;2.53;81.25
33191;BME280;19554;42.652;23.364;2023-03-16T03:39:57;93923.56;;;2.41;81.04
33191;BME280;19554;42.652;23.364;2023-03-16T03:42:22;93928.84;;;2.41;81.13
33191;BME280;19554;42.652;23.364;2023-03-16T03:44:49;93893.91;;;2.19;81.38
33191;BME280;19554;42.652;23.364;2023-03-16T03:47:16;93935.16;;;2.40;81.88
33191;BME280;19554;42.652;23.364;2023-03-16T03:49:41;93879.78;;;1.93;81.68
33191;BME280;19554;42.652;23.364;2023-03-16T03:52:06;93922.56;;;2.10;82.02
33191;BME280;19554;42.652;23.364;2023-03-16T03:54:32;93914.28;;;1.96;82.00
33191;BME280;19554;42.652;23.364;2023-03-16T03:56:58;93925.59;;;1.97;82.13
33191;BME280;19554;42.652;23.364;2023-03-16T03:59:23;93957.63;;;2.16;82.26
33191;BME280;19554;42.652;23.364;2023-03-16T04:01:48;93891.00;;;1.83;82.48
33191;BME280;19554;42.652;23.364;2023-03-16T04:04:14;93951.81;;;2.19;81.55
33191;BME280;19554;42.652;23.364;2023-03-16T04:06:40;93921.69;;;1.99;80.95
33191;BME280;19554;42.652;23.364;2023-03-16T04:09:06;93962.44;;;2.29;80.86
33191;BME280;19554;42.652;23.364;2023-03-16T04:11:32;93951.13;;;2.28;81.42
33191;BME280;19554;42.652;23.364;2023-03-16T04:13:57;93947.16;;;2.26;81.10
33191;BME280;19554;42.652;23.364;2023-03-16T04:16:23;93855.88;;;1.67;80.78
33191;BME280;19554;42.652;23.364;2023-03-16T04:18:53;93951.41;;;2.32;81.19
33191;BME280;19554;42.652;23.364;2023-03-16T04:21:19;93967.78;;;2.39;80.55
33191;BME280;19554;42.652;23.364;2023-03-16T04:23:46;93937.63;;;2.20;81.16
33191;BME280;19554;42.652;23.364;2023-03-16T04:26:12;93801.91;;;1.27;81.20
33191;BME280;19554;42.652;23.364;2023-03-16T04:28:38;93886.84;;;1.87;81.39
33191;BME280;19554;42.652;23.364;2023-03-16T04:31:06;93970.31;;;2.61;81.44
33191;BME280;19554;42.652;23.364;2023-03-16T04:33:36;93975.88;;;2.65;80.64
33191;BME280;19554;42.652;23.364;2023-03-16T04:36:03;93977.47;;;2.66;79.88
33191;BME280;19554;42.652;23.364;2023-03-16T04:38:30;93982.28;;;2.79;79.41
33191;BME280;19554;42.652;23.364;2023-03-16T04:40:58;93975.41;;;2.73;78.81
33191;BME280;19554;42.652;23.364;2023-03-16T04:43:23;93980.28;;;2.54;78.80
33191;BME280;19554;42.652;23.364;2023-03-16T04:45:49;93953.00;;;2.33;79.47
33191;BME280;19554;42.652;23.364;2023-03-16T04:48:14;93963.00;;;2.31;79.86
33191;BME280;19554;42.652;23.364;2023-03-16T04:50:40;93999.03;;;2.63;79.85
33191;BME280;19554;42.652;23.364;2023-03-16T04:53:05;93882.81;;;1.79;78.93
33191;BME280;19554;42.652;23.364;2023-03-16T04:55:31;94015.25;;;2.44;80.41
33191;BME280;19554;42.652;23.364;2023-03-16T04:57:57;94004.06;;;2.32;79.97
33191;BME280;19554;42.652;23.364;2023-03-16T05:00:22;94016.41;;;2.26;80.38
33191;BME280;19554;42.652;23.364;2023-03-16T05:02:49;94039.91;;;2.33;80.99
33191;BME280;19554;42.652;23.364;2023-03-16T05:05:16;94026.53;;;2.40;81.28
33191;BME280;19554;42.652;23.364;2023-03-16T05:07:41;94010.00;;;2.49;81.21
33191;BME280;19554;42.652;23.364;2023-03-16T05:10:09;93980.06;;;2.23;80.46
33191;BME280;19554;42.652;23.364;2023-03-16T05:12:34;93926.28;;;1.82;80.42
33191;BME280;19554;42.652;23.364;2023-03-16T05:14:59;94033.72;;;2.49;80.20
33191;BME280;19554;42.652;23.364;2023-03-16T05:17:26;94030.56;;;2.52;79.85
33191;BME280;19554;42.652;23.364;2023-03-16T05:19:51;94034.56;;;2.55;78.99
33191;BME280;19554;42.652;23.364;2023-03-16T05:22:16;94033.25;;;2.57;79.44
33191;BME280;19554;42.652;23.364;2023-03-16T05:24:42;94039.59;;;2.56;79.98
33191;BME280;19554;42.652;23.364;2023-03-16T05:27:07;94049.00;;;2.52;79.76
33191;BME280;19554;42.652;23.364;2023-03-16T05:29:33;94048.97;;;2.47;79.49
33191;BME280;19554;42.652;23.364;2023-03-16T05:31:58;94043.16;;;2.45;79.23
33191;BME280;19554;42.652;23.364;2023-03-16T05:34:24;93984.94;;;2.09;79.08
33191;BME280;19554;42.652;23.364;2023-03-16T05:36:50;94055.75;;;2.38;79.30
33191;BME280;19554;42.652;23.364;2023-03-16T05:39:15;94045.59;;;2.25;80.04
33191;BME280;19554;42.652;23.364;2023-03-16T05:41:41;94049.31;;;2.29;80.31
33191;BME280;19554;42.652;23.364;2023-03-16T05:44:07;94058.28;;;2.28;80.43
33191;BME280;19554;42.652;23.364;2023-03-16T05:46:32;94055.75;;;2.38;80.62
33191;BME280;19554;42.652;23.364;2023-03-16T05:48:58;94071.09;;;2.46;80.54
33191;BME280;19554;42.652;23.364;2023-03-16T05:51:24;94059.81;;;2.24;80.14
33191;BME280;19554;42.652;23.364;2023-03-16T05:53:53;93955.44;;;1.53;80.03
33191;BME280;19554;42.652;23.364;2023-03-16T05:56:25;94043.53;;;2.00;80.13
33191;BME280;19554;42.652;23.364;2023-03-16T05:58:51;94072.13;;;2.18;80.47
33191;BME280;19554;42.652;23.364;2023-03-16T06:01:18;94068.19;;;2.16;80.53
33191;BME280;19554;42.652;23.364;2023-03-16T06:03:45;94043.63;;;1.83;80.87
33191;BME280;19554;42.652;23.364;2023-03-16T06:06:10;93965.91;;;1.48;81.17
33191;BME280;19554;42.652;23.364;2023-03-16T06:08:36;94089.94;;;2.33;80.93
33191;BME280;19554;42.652;23.364;2023-03-16T06:11:01;94084.91;;;2.31;80.83
33191;BME280;19554;42.652;23.364;2023-03-16T06:13:28;94095.16;;;2.28;80.78
33191;BME280;19554;42.652;23.364;2023-03-16T06:15:54;94092.72;;;2.48;80.70
33191;BME280;19554;42.652;23.364;2023-03-16T06:18:19;94073.75;;;2.46;79.99
33191;BME280;19554;42.652;23.364;2023-03-16T06:20:45;94106.03;;;2.64;79.52
33191;BME280;19554;42.652;23.364;2023-03-16T06:23:11;94108.97;;;2.67;78.77
33191;BME280;19554;42.652;23.364;2023-03-16T06:25:37;94102.47;;;2.53;78.59
33191;BME280;19554;42.652;23.364;2023-03-16T06:28:03;94112.22;;;2.52;79.12
33191;BME280;19554;42.652;23.364;2023-03-16T06:30:28;94113.00;;;2.48;78.65
33191;BME280;19554;42.652;23.364;2023-03-16T06:32:54;93997.91;;;1.67;78.35
33191;BME280;19554;42.652;23.364;2023-03-16T06:35:19;94122.81;;;2.57;78.84
33191;BME280;19554;42.652;23.364;2023-03-16T06:37:44;94121.31;;;2.67;78.96
33191;BME280;19554;42.652;23.364;2023-03-16T06:40:10;94127.78;;;2.81;78.23
33191;BME280;19554;42.652;23.364;2023-03-16T06:42:36;94005.34;;;1.97;77.91
33191;BME280;19554;42.652;23.364;2023-03-16T06:45:02;94144.59;;;2.75;77.62
33191;BME280;19554;42.652;23.364;2023-03-16T06:47:27;94132.31;;;2.58;77.91
33191;BME280;19554;42.652;23.364;2023-03-16T06:49:52;94145.00;;;2.61;77.66
33191;BME280;19554;42.652;23.364;2023-03-16T06:52:20;94144.41;;;2.54;77.32
33191;BME280;19554;42.652;23.364;2023-03-16T06:54:45;94139.13;;;2.54;77.07
33191;BME280;19554;42.652;23.364;2023-03-16T06:57:10;94049.69;;;2.10;76.87
33191;BME280;19554;42.652;23.364;2023-03-16T06:59:36;94153.50;;;2.69;76.39
33191;BME280;19554;42.652;23.364;2023-03-16T07:02:01;94157.78;;;2.75;76.95
33191;BME280;19554;42.652;23.364;2023-03-16T07:04:27;94102.94;;;2.18;75.46
33191;BME280;19554;42.652;23.364;2023-03-16T07:06:53;94161.28;;;2.58;75.75
33191;BME280;19554;42.652;23.364;2023-03-16T07:09:18;94173.31;;;2.49;75.45
33191;BME280;19554;42.652;23.364;2023-03-16T07:11:43;94033.34;;;1.59;75.56
33191;BME280;19554;42.652;23.364;2023-03-16T07:14:09;94165.84;;;2.41;75.74
33191;BME280;19554;42.652;23.364;2023-03-16T07:16:36;94073.00;;;1.75;75.80
33191;BME280;19554;42.652;23.364;2023-03-16T07:19:01;94188.31;;;2.49;76.38
33191;BME280;19554;42.652;23.364;2023-03-16T07:21:27;94172.22;;;2.45;76.41
33191;BME280;19554;42.652;23.364;2023-03-16T07:23:52;94183.94;;;2.59;77.15
33191;BME280;19554;42.652;23.364;2023-03-16T07:26:17;94183.16;;;2.59;77.38
33191;BME280;19554;42.652;23.364;2023-03-16T07:28:43;94194.06;;;2.68;76.89
33191;BME280;19554;42.652;23.364;2023-03-16T07:31:09;94191.44;;;2.68;77.12
33191;BME280;19554;42.652;23.364;2023-03-16T07:33:35;94188.91;;;2.78;77.17
33191;BME280;19554;42.652;23.364;2023-03-16T07:36:00;94191.63;;;2.88;77.67
33191;BME280;19554;42.652;23.364;2023-03-16T07:38:31;94181.47;;;2.75;77.22
33191;BME280;19554;42.652;23.364;2023-03-16T07:40:57;94191.22;;;2.74;77.48
33191;BME280;19554;42.652;23.364;2023-03-16T07:43:23;94117.84;;;2.34;77.92
33191;BME280;19554;42.652;23.364;2023-03-16T07:45:49;94192.75;;;2.97;77.24
33191;BME280;19554;42.652;23.364;2023-03-16T07:48:15;94201.19;;;2.94;76.92
33191;BME280;19554;42.652;23.364;2023-03-16T07:50:41;94168.75;;;2.67;75.93
33191;BME280;19554;42.652;23.364;2023-03-16T07:53:06;94186.75;;;2.75;75.87
33191;BME280;19554;42.652;23.364;2023-03-16T07:55:31;94212.81;;;2.71;75.77
33191;BME280;19554;42.652;23.364;2023-03-16T07:58:00;94212.91;;;2.81;76.86
33191;BME280;19554;42.652;23.364;2023-03-16T08:00:26;94108.56;;;2.26;76.66
33191;BME280;19554;42.652;23.364;2023-03-16T08:02:51;94122.25;;;2.50;75.78
33191;BME280;19554;42.652;23.364;2023-03-16T08:05:17;94213.09;;;3.02;75.45
33191;BME280;19554;42.652;23.364;2023-03-16T08:07:43;94212.81;;;2.98;75.38
33191;BME280;19554;42.652;23.364;2023-03-16T08:10:10;94216.56;;;3.07;74.30
33191;BME280;19554;42.652;23.364;2023-03-16T08:12:35;94223.78;;;3.17;74.60
33191;BME280;19554;42.652;23.364;2023-03-16T08:15:01;94220.34;;;3.17;74.26
33191;BME280;19554;42.652;23.364;2023-03-16T08:17:27;94180.22;;;2.82;74.31
33191;BME280;19554;42.652;23.364;2023-03-16T08:19:52;94223.53;;;3.19;74.39
33191;BME280;19554;42.652;23.364;2023-03-16T08:22:17;94118.16;;;2.65;73.13
33191;BME280;19554;42.652;23.364;2023-03-16T08:24:43;94215.63;;;3.19;73.76
33191;BME280;19554;42.652;23.364;2023-03-16T08:27:08;94232.56;;;3.28;73.84
33191;BME280;19554;42.652;23.364;2023-03-16T08:29:34;94237.13;;;3.38;74.40
33191;BME280;19554;42.652;23.364;2023-03-16T08:31:59;94212.91;;;3.08;73.90
33191;BME280;19554;42.652;23.364;2023-03-16T08:34:25;94238.91;;;3.27;74.11
33191;BME280;19554;42.652;23.364;2023-03-16T08:36:51;94209.19;;;3.04;74.37
33191;BME280;19554;42.652;23.364;2023-03-16T08:39:16;94239.38;;;3.19;74.10
33191;BME280;19554;42.652;23.364;2023-03-16T08:41:42;94244.72;;;3.29;73.76
33191;BME280;19554;42.652;23.364;2023-03-16T08:44:10;94243.19;;;3.33;73.69
33191;BME280;19554;42.652;23.364;2023-03-16T08:46:37;94188.91;;;2.78;73.01
33191;BME280;19554;42.652;23.364;2023-03-16T08:49:03;94242.69;;;3.09;73.61
33191;BME280;19554;42.652;23.364;2023-03-16T08:51:29;94207.47;;;2.93;73.90
33191;BME280;19554;42.652;23.364;2023-03-16T08:53:55;94241.72;;;3.47;74.23
33191;BME280;19554;42.652;23.364;2023-03-16T08:56:20;94243.00;;;3.45;73.91
33191;BME280;19554;42.652;23.364;2023-03-16T08:58:46;94260.59;;;3.66;72.63
33191;BME280;19554;42.652;23.364;2023-03-16T09:01:14;94237.94;;;3.38;70.88
33191;BME280;19554;42.652;23.364;2023-03-16T09:03:40;94264.97;;;3.55;71.40
33191;BME280;19554;42.652;23.364;2023-03-16T09:06:10;94269.66;;;3.48;71.24
33191;BME280;19554;42.652;23.364;2023-03-16T09:08:38;94247.59;;;3.27;71.70
33191;BME280;19554;42.652;23.364;2023-03-16T09:11:06;94241.94;;;3.14;71.73
33191;BME280;19554;42.652;23.364;2023-03-16T09:13:33;94268.47;;;3.29;71.72
33191;BME280;19554;42.652;23.364;2023-03-16T09:15:59;94270.69;;;3.42;71.61
33191;BME280;19554;42.652;23.364;2023-03-16T09:18:25;94275.78;;;3.49;71.29
33191;BME280;19554;42.652;23.364;2023-03-16T09:20:58;94218.63;;;3.00;71.24
33191;BME280;19554;42.652;23.364;2023-03-16T09:23:24;94264.84;;;3.35;71.45
33191;BME280;19554;42.652;23.364;2023-03-16T09:25:50;94259.03;;;3.38;71.67
33191;BME280;19554;42.652;23.364;2023-03-16T09:28:18;94216.78;;;3.01;70.88
33191;BME280;19554;42.652;23.364;2023-03-16T09:30:43;94276.00;;;3.47;71.61
33191;BME280;19554;42.652;23.364;2023-03-16T09:33:09;94275.53;;;3.55;71.41
33191;BME280;19554;42.652;23.364;2023-03-16T09:35:34;94272.94;;;3.61;71.36
33191;BME280;19554;42.652;23.364;2023-03-16T09:38:01;94125.59;;;2.73;71.14
33191;BME280;19554;42.652;23.364;2023-03-16T09:40:27;94276.16;;;3.63;70.47
33191;BME280;19554;42.652;23.364;2023-03-16T09:45:22;94279.31;;;3.65;69.81
33191;BME280;19554;42.652;23.364;2023-03-16T09:47:55;94236.63;;;3.41;70.28
33191;BME280;19554;42.652;23.364;2023-03-16T09:50:32;94282.22;;;3.63;70.29
33191;BME280;19554;42.652;23.364;2023-03-16T09:53:17;94278.81;;;3.68;70.05
33191;BME280;19554;42.652;23.364;2023-03-16T09:55:48;94180.19;;;3.04;70.05
33191;BME280;19554;42.652;23.364;2023-03-16T09:58:18;94289.34;;;3.63;69.73
33191;BME280;19554;42.652;23.364;2023-03-16T10:03:57;94286.03;;;3.45;71.19
33191;BME280;19554;42.652;23.364;2023-03-16T10:06:23;94296.44;;;3.30;71.85
33191;BME280;19554;42.652;23.364;2023-03-16T10:08:53;94258.25;;;3.11;73.02
33191;BME280;19554;42.652;23.364;2023-03-16T10:11:41;94211.72;;;2.94;73.39
33191;BME280;19554;42.652;23.364;2023-03-16T10:14:24;94181.09;;;2.88;72.87
33191;BME280;19554;42.652;23.364;2023-03-16T10:17:00;94286.09;;;3.55;72.86
33191;BME280;19554;42.652;23.364;2023-03-16T10:19:47;94282.41;;;3.56;72.55
33191;BME280;19554;42.652;23.364;2023-03-16T10:25:06;94289.28;;;3.58;72.34
33191;BME280;19554;42.652;23.364;2023-03-16T10:27:34;94280.88;;;3.66;72.43
33191;BME280;19554;42.652;23.364;2023-03-16T10:30:12;94286.78;;;3.73;72.68
33191;BME280;19554;42.652;23.364;2023-03-16T10:32:39;94131.44;;;2.80;71.93
33191;BME280;19554;42.652;23.364;2023-03-16T10:37:44;94287.81;;;3.72;70.53
33191;BME280;19554;42.652;23.364;2023-03-16T10:40:11;94222.03;;;3.28;70.40
33191;BME280;19554;42.652;23.364;2023-03-16T10:42:37;94168.84;;;2.77;70.76
33191;BME280;19554;42.652;23.364;2023-03-16T10:45:04;94291.97;;;3.63;71.60
33191;BME280;19554;42.652;23.364;2023-03-16T10:47:32;94270.69;;;3.42;71.33
33191;BME280;19554;42.652;23.364;2023-03-16T10:49:58;94282.94;;;3.59;71.63
33191;BME280;19554;42.652;23.364;2023-03-16T10:52:40;94270.31;;;3.61;71.07
33191;BME280;19554;42.652;23.364;2023-03-16T10:55:20;94289.66;;;3.71;71.29
33191;BME280;19554;42.652;23.364;2023-03-16T10:57:49;94289.44;;;3.78;70.82
33191;BME280;19554;42.652;23.364;2023-03-16T11:02:50;94268.59;;;3.44;70.14
33191;BME280;19554;42.652;23.364;2023-03-16T11:08:01;94290.22;;;3.78;69.59
33191;BME280;19554;42.652;23.364;2023-03-16T11:10:35;94290.31;;;3.89;69.41
33191;BME280;19554;42.652;23.364;2023-03-16T11:15:44;94296.47;;;3.99;67.46
33191;BME280;19554;42.652;23.364;2023-03-16T11:18:35;94294.09;;;3.98;67.35
33191;BME280;19554;42.652;23.364;2023-03-16T11:21:16;94278.97;;;3.88;67.13
33191;BME280;19554;42.652;23.364;2023-03-16T11:23:47;94280.25;;;3.86;67.24
33191;BME280;19554;42.652;23.364;2023-03-16T11:26:21;94294.88;;;3.98;67.29
33191;BME280;19554;42.652;23.364;2023-03-16T11:28:54;94283.31;;;4.04;67.25
33191;BME280;19554;42.652;23.364;2023-03-16T11:31:41;94294.88;;;3.98;66.80
33191;BME280;19554;42.652;23.364;2023-03-16T11:34:18;94296.00;;;4.08;67.29
33191;BME280;19554;42.652;23.364;2023-03-16T11:36:50;94299.66;;;4.01;66.47
33191;BME280;19554;42.652;23.364;2023-03-16T11:41:58;94299.16;;;4.04;66.42
33191;BME280;19554;42.652;23.364;2023-03-16T11:50:00;94289.09;;;4.07;66.43
33191;BME280;19554;42.652;23.364;2023-03-16T11:52:34;94290.59;;;3.92;66.72
33191;BME280;19554;42.652;23.364;2023-03-16T11:55:37;94296.31;;;3.79;67.12
33191;BME280;19554;42.652;23.364;2023-03-16T12:07:15;94307.75;;;3.58;68.42
33191;BME280;19554;42.652;23.364;2023-03-16T12:15:54;94252.38;;;3.03;67.75
33191;BME280;19554;42.652;23.364;2023-03-16T12:18:48;94317.97;;;3.49;68.87
33191;BME280;19554;42.652;23.364;2023-03-16T12:21:44;94311.38;;;3.51;68.45
33191;BME280;19554;42.652;23.364;2023-03-16T12:24:22;94316.53;;;3.36;68.76
33191;BME280;19554;42.652;23.364;2023-03-16T12:26:52;94323.50;;;3.47;68.32
33191;BME280;19554;42.652;23.364;2023-03-16T12:29:39;94317.91;;;3.44;68.29
33191;BME280;19554;42.652;23.364;2023-03-16T12:32:08;94330.41;;;3.53;68.54
33191;BME280;19554;42.652;23.364;2023-03-16T12:34:47;94323.72;;;3.73;68.48
33191;BME280;19554;42.652;23.364;2023-03-16T12:37:41;94325.53;;;3.67;67.92
33191;BME280;19554;42.652;23.364;2023-03-16T12:43:22;94336.47;;;3.54;68.20
33191;BME280;19554;42.652;23.364;2023-03-16T12:48:32;94308.94;;;3.45;68.39
33191;BME280;19554;42.652;23.364;2023-03-16T12:51:01;94336.97;;;3.78;68.59
33191;BME280;19554;42.652;23.364;2023-03-16T12:56:18;94342.53;;;3.49;69.07
33191;BME280;19554;42.652;23.364;2023-03-16T12:58:49;94345.06;;;3.39;70.01
33191;BME280;19554;42.652;23.364;2023-03-16T13:01:17;94349.25;;;3.35;70.96
33191;BME280;19554;42.652;23.364;2023-03-16T13:03:47;94346.53;;;3.30;71.83
33191;BME280;19554;42.652;23.364;2023-03-16T13:06:19;94353.41;;;3.31;73.41
33191;BME280;19554;42.652;23.364;2023-03-16T13:08:57;94352.81;;;3.24;73.74
33191;BME280;19554;42.652;23.364;2023-03-16T13:11:25;94250.25;;;2.51;73.91
33191;BME280;19554;42.652;23.364;2023-03-16T13:16:34;94362.22;;;3.15;75.22
33191;BME280;19554;42.652;23.364;2023-03-16T13:21:46;94353.06;;;3.00;75.13
33191;BME280;19554;42.652;23.364;2023-03-16T13:24:21;94372.81;;;3.20;75.78
33191;BME280;19554;42.652;23.364;2023-03-16T13:26:52;94370.97;;;3.20;75.90
33191;BME280;19554;42.652;23.364;2023-03-16T13:29:24;94376.13;;;3.32;76.14
33191;BME280;19554;42.652;23.364;2023-03-16T13:31:51;94359.34;;;3.43;76.29
33191;BME280;19554;42.652;23.364;2023-03-16T13:34:22;94376.81;;;3.49;76.02
33191;BME280;19554;42.652;23.364;2023-03-16T13:36:53;94359.13;;;3.50;75.48
33191;BME280;19554;42.652;23.364;2023-03-16T13:39:23;94370.63;;;3.66;75.79
33191;BME280;19554;42.652;23.364;2023-03-16T13:42:01;94375.66;;;3.67;75.82
33191;BME280;19554;42.652;23.364;2023-03-16T13:44:29;94380.59;;;3.59;74.35
33191;BME280;19554;42.652;23.364;2023-03-16T13:46:56;94374.91;;;3.72;74.09
33191;BME280;19554;42.652;23.364;2023-03-16T13:49:22;94377.03;;;3.70;74.12
33191;BME280;19554;42.652;23.364;2023-03-16T13:51:48;94385.16;;;3.68;74.77
33191;BME280;19554;42.652;23.364;2023-03-16T13:54:22;94388.16;;;3.77;74.92
33191;BME280;19554;42.652;23.364;2023-03-16T13:56:50;94340.38;;;3.46;74.91
33191;BME280;19554;42.652;23.364;2023-03-16T13:59:17;94383.78;;;3.61;74.75
33191;BME280;19554;42.652;23.364;2023-03-16T14:01:44;94390.44;;;3.68;75.37
33191;BME280;19554;42.652;23.364;2023-03-16T14:04:11;94322.97;;;3.18;74.08
33191;BME280;19554;42.652;23.364;2023-03-16T14:06:51;94380.84;;;3.57;74.05
33191;BME280;19554;42.652;23.364;2023-03-16T14:09:20;94349.44;;;3.28;74.62
33191;BME280;19554;42.652;23.364;2023-03-16T14:11:46;94400.88;;;3.53;74.04